Observation data for White River Lake on 04/22/2019      Previous  Date  Next       Current Mesonet Observations  Soil Data  Daily Summary Page  Observations in Plain Language
KWVS 220500Z 20009KT 20/06 A2988 RMK A01 T01960060  RH  042%=      5-min Rain = 0
KWVS 220505Z 21009KT 19/06 A2988 RMK A01 T01940062  RH  043%=      5-min Rain = 0
KWVS 220510Z 21010KT 19/06 A2988 RMK A01 T01930063  RH  044%=      5-min Rain = 0
KWVS 220515Z 20011KT 19/06 A2987 RMK A01 T01940064  RH  044%=      5-min Rain = 0
KWVS 220520Z 21012KT 20/07 A2988 RMK A01 T01980065  RH  043%=      5-min Rain = 0
KWVS 220525Z 21011KT 19/07 A2988 RMK A01 T01940065  RH  044%=      5-min Rain = 0
KWVS 220530Z 20011KT 19/07 A2988 RMK A01 T01940068  RH  045%=      5-min Rain = 0
KWVS 220535Z 21011KT 20/07 A2988 RMK A01 T01950071  RH  046%=      5-min Rain = 0
KWVS 220540Z 21011KT 20/08 A2988 RMK A01 T01950077  RH  048%=      5-min Rain = 0
KWVS 220545Z 20013KT 20/08 A2988 RMK A01 T01970082  RH  049%=      5-min Rain = 0
KWVS 220550Z 20013KT 20/09 A2988 RMK A01 T02010087  RH  049%=      5-min Rain = 0
KWVS 220555Z 20014KT 20/09 A2988 RMK A01 T02040092  RH  050%=      5-min Rain = 0
KWVS 220600Z 20014KT 20/10 A2988 RMK A01 T02030096  RH  052%=      5-min Rain = 0
KWVS 220605Z 19013KT 20/10 A2988 RMK A01 T02020098  RH  053%=      5-min Rain = 0
KWVS 220610Z 19013G18KT 20/10 A2988 RMK A01 T02010100  RH  054%=      5-min Rain = 0
KWVS 220615Z 20013G18KT 20/10 A2989 RMK A01 T01990101  RH  055%=      5-min Rain = 0
KWVS 220620Z 20013KT 20/10 A2989 RMK A01 T01980102  RH  055%=      5-min Rain = 0
KWVS 220625Z 19013KT 20/10 A2989 RMK A01 T01970102  RH  056%=      5-min Rain = 0
KWVS 220630Z 19014KT 20/10 A2989 RMK A01 T01960104  RH  057%=      5-min Rain = 0
KWVS 220635Z 19014KT 20/11 A2989 RMK A01 T01960105  RH  058%=      5-min Rain = 0
KWVS 220640Z 19013KT 20/11 A2989 RMK A01 T01950106  RH  059%=      5-min Rain = 0
KWVS 220645Z 19013KT 19/11 A2989 RMK A01 T01940108  RH  059%=      5-min Rain = 0
KWVS 220650Z 19014KT 19/11 A2989 RMK A01 T01930109  RH  060%=      5-min Rain = 0
KWVS 220655Z 19014KT 19/11 A2989 RMK A01 T01930111  RH  061%=      5-min Rain = 0
KWVS 220700Z 19013KT 19/11 A2989 RMK A01 T01920112  RH  062%=      5-min Rain = 0
KWVS 220705Z 19013KT 19/11 A2989 RMK A01 T01920113  RH  063%=      5-min Rain = 0
KWVS 220710Z 19014KT 19/12 A2989 RMK A01 T01930116  RH  063%=      5-min Rain = 0
KWVS 220715Z 19013KT 19/12 A2989 RMK A01 T01920118  RH  064%=      5-min Rain = 0
KWVS 220720Z 19013KT 19/12 A2989 RMK A01 T01920119  RH  065%=      5-min Rain = 0
KWVS 220725Z 19013KT 19/12 A2989 RMK A01 T01910120  RH  066%=      5-min Rain = 0
KWVS 220730Z 19013G18KT 19/12 A2989 RMK A01 T01920122  RH  066%=      5-min Rain = 0
KWVS 220735Z 19014KT 19/12 A2989 RMK A01 T01920123  RH  067%=      5-min Rain = 0
KWVS 220740Z 19013KT 19/12 A2989 RMK A01 T01920124  RH  067%=      5-min Rain = 0
KWVS 220745Z 19014KT 19/12 A2989 RMK A01 T01910124  RH  068%=      5-min Rain = 0
KWVS 220750Z 19013KT 19/13 A2989 RMK A01 T01900125  RH  068%=      5-min Rain = 0
KWVS 220755Z 20013KT 19/13 A2989 RMK A01 T01890125  RH  069%=      5-min Rain = 0
KWVS 220800Z 20012KT 19/13 A2989 RMK A01 T01880126  RH  070%=      5-min Rain = 0
KWVS 220805Z 20012KT 19/13 A2989 RMK A01 T01870126  RH  070%=      5-min Rain = 0
KWVS 220810Z 20012KT 19/13 A2989 RMK A01 T01850126  RH  071%=      5-min Rain = 0
KWVS 220815Z 20012KT 18/13 A2989 RMK A01 T01840127  RH  072%=      5-min Rain = 0
KWVS 220820Z 20012KT 18/13 A2989 RMK A01 T01830127  RH  073%=      5-min Rain = 0
KWVS 220825Z 20012KT 18/13 A2989 RMK A01 T01820127  RH  073%=      5-min Rain = 0
KWVS 220830Z 20012KT 18/13 A2989 RMK A01 T01810127  RH  074%=      5-min Rain = 0
KWVS 220835Z 20012KT 18/13 A2989 RMK A01 T01810127  RH  074%=      5-min Rain = 0
KWVS 220840Z 20012KT 18/13 A2989 RMK A01 T01800127  RH  074%=      5-min Rain = 0
KWVS 220845Z 20012KT 18/13 A2989 RMK A01 T01790128  RH  075%=      5-min Rain = 0
KWVS 220850Z 20012KT 18/13 A2989 RMK A01 T01790128  RH  075%=      5-min Rain = 0
KWVS 220855Z 20013KT 18/13 A2988 RMK A01 T01790128  RH  075%=      5-min Rain = 0
KWVS 220900Z 20013KT 18/13 A2988 RMK A01 T01790128  RH  075%=      5-min Rain = 0
KWVS 220905Z 20013KT 18/13 A2988 RMK A01 T01790128  RH  075%=      5-min Rain = 0
KWVS 220910Z 20013KT 18/13 A2988 RMK A01 T01790129  RH  075%=      5-min Rain = 0
KWVS 220915Z 20013KT 18/13 A2988 RMK A01 T01780128  RH  076%=      5-min Rain = 0
KWVS 220920Z 20013KT 18/13 A2988 RMK A01 T01780128  RH  076%=      5-min Rain = 0
KWVS 220925Z 20013KT 18/13 A2988 RMK A01 T01760128  RH  076%=      5-min Rain = 0
KWVS 220930Z 20012KT 18/13 A2988 RMK A01 T01760128  RH  076%=      5-min Rain = 0
KWVS 220935Z 20011KT 18/13 A2988 RMK A01 T01770128  RH  076%=      5-min Rain = 0
KWVS 220940Z 21012KT 18/13 A2988 RMK A01 T01780128  RH  076%=      5-min Rain = 0
KWVS 220945Z 20011KT 18/13 A2988 RMK A01 T01770128  RH  076%=      5-min Rain = 0
KWVS 220950Z 20011KT 18/13 A2989 RMK A01 T01770128  RH  076%=      5-min Rain = 0
KWVS 220955Z 20010KT 18/13 A2989 RMK A01 T01760128  RH  076%=      5-min Rain = 0
KWVS 221000Z 20010KT 18/13 A2989 RMK A01 T01760127  RH  076%=      5-min Rain = 0
KWVS 221005Z 20009KT 18/13 A2989 RMK A01 T01760127  RH  076%=      5-min Rain = 0
KWVS 221010Z 20008KT 17/13 A2989 RMK A01 T01740127  RH  077%=      5-min Rain = 0
KWVS 221015Z 19009KT 17/13 A2989 RMK A01 T01730127  RH  077%=      5-min Rain = 0
KWVS 221020Z 20009KT 17/13 A2989 RMK A01 T01720126  RH  078%=      5-min Rain = 0
KWVS 221025Z 19008KT 17/13 A2989 RMK A01 T01700126  RH  078%=      5-min Rain = 0
KWVS 221030Z 18010KT 17/13 A2989 RMK A01 T01690126  RH  079%=      5-min Rain = 0
KWVS 221035Z 18009KT 17/13 A2989 RMK A01 T01680126  RH  079%=      5-min Rain = 0
KWVS 221040Z 18007KT 17/13 A2989 RMK A01 T01670126  RH  079%=      5-min Rain = 0
KWVS 221045Z 18007KT 17/13 A299 RMK A01 T01650125  RH  080%=      5-min Rain = 0
KWVS 221050Z 19007KT 16/13 A299 RMK A01 T01640125  RH  081%=      5-min Rain = 0
KWVS 221055Z 19006KT 17/13 A299 RMK A01 T01660125  RH  080%=      5-min Rain = 0
KWVS 221100Z 19005KT 17/12 A299 RMK A01 T01650124  RH  080%=      5-min Rain = 0
KWVS 221105Z 19003KT 17/13 A2991 RMK A01 T01670125  RH  079%=      5-min Rain = 0
KWVS 221110Z 19001KT 17/12 A2991 RMK A01 T01680124  RH  078%=      5-min Rain = 0
KWVS 221115Z 21001KT 17/12 A2991 RMK A01 T01680124  RH  078%=      5-min Rain = 0
KWVS 221120Z 20002KT 17/12 A2991 RMK A01 T01690124  RH  078%=      5-min Rain = 0
KWVS 221125Z 19004KT 17/12 A2991 RMK A01 T01700123  RH  076%=      5-min Rain = 0
KWVS 221130Z 19008KT 17/12 A2991 RMK A01 T01730124  RH  076%=      5-min Rain = 0
KWVS 221135Z 20008KT 17/12 A2991 RMK A01 T01720123  RH  076%=      5-min Rain = 0
KWVS 221140Z 20007KT 17/12 A2991 RMK A01 T01690123  RH  077%=      5-min Rain = 0
KWVS 221145Z 30006G12KT 17/12 A2992 RMK A01 T01650122  RH  078%=      5-min Rain = 0
KWVS 221150Z 34015KT 15/12 A2994 RMK A01 T01530120  RH  084%=      5-min Rain = 0
KWVS 221155Z 33011G16KT 16/12 A2994 RMK A01 T01560122  RH  083%=      5-min Rain = 0
KWVS 221200Z 32010G16KT 16/12 A2995 RMK A01 T01560122  RH  083%=      5-min Rain = 0
KWVS 221205Z 32009G14KT 16/12 A2995 RMK A01 T01600122  RH  081%=      5-min Rain = 0
KWVS 221210Z 32010G15KT 16/12 A2995 RMK A01 T01620122  RH  080%=      5-min Rain = 0
KWVS 221215Z 32012KT 16/12 A2996 RMK A01 T01600121  RH  081%=      5-min Rain = 0
KWVS 221220Z 27008KT 16/12 A2996 RMK A01 T01600119  RH  079%=      5-min Rain = 0
KWVS 221225Z 28008KT 16/12 A2996 RMK A01 T01640119  RH  078%=      5-min Rain = 0
KWVS 221230Z 34012KT 16/12 A2996 RMK A01 T01560117  RH  080%=      5-min Rain = 0
KWVS 221235Z 32007G12KT 16/12 A2996 RMK A01 T01550116  RH  081%=      5-min Rain = 0
KWVS 221240Z 30007KT 16/12 A2997 RMK A01 T01550116  RH  080%=      5-min Rain = 0
KWVS 221245Z 31006KT 15/12 A2997 RMK A01 T01520115  RH  082%=      5-min Rain = 0
KWVS 221250Z 31006KT 15/12 A2997 RMK A01 T01510115  RH  082%=      5-min Rain = 0
KWVS 221255Z 32006KT 15/11 A2998 RMK A01 T01520114  RH  081%=      5-min Rain = 0
KWVS 221300Z 32007KT 15/12 A2998 RMK A01 T01530115  RH  081%=      5-min Rain = 0
KWVS 221305Z 32008KT 16/11 A2999 RMK A01 T01550114  RH  079%=      5-min Rain = 0
KWVS 221310Z 33005KT 16/11 A2999 RMK A01 T01570114  RH  078%=      5-min Rain = 0
KWVS 221315Z 34008KT 16/11 A2999 RMK A01 T01570112  RH  077%=      5-min Rain = 0
KWVS 221320Z 33006KT 16/11 A2999 RMK A01 T01600108  RH  074%=      5-min Rain = 0
KWVS 221325Z 34008KT 16/11 A2999 RMK A01 T01590108  RH  074%=      5-min Rain = 0
KWVS 221330Z 36008KT 16/11 A30 RMK A01 T01590106  RH  073%=      5-min Rain = 0
KWVS 221335Z 35010KT 16/10 A30 RMK A01 T01590095  RH  068%=      5-min Rain = 0
KWVS 221340Z 35009KT 16/10 A30 RMK A01 T01590095  RH  068%=      5-min Rain = 0
KWVS 221345Z 36010KT 16/09 A30 RMK A01 T01580087  RH  064%=      5-min Rain = 0
KWVS 221350Z 36009KT 16/09 A30 RMK A01 T01580086  RH  064%=      5-min Rain = 0
KWVS 221355Z 35009KT 16/09 A30 RMK A01 T01580088  RH  065%=      5-min Rain = 0
KWVS 221400Z 36009KT 16/08 A30 RMK A01 T01580084  RH  063%=      5-min Rain = 0
KWVS 221405Z 36009KT 16/09 A30 RMK A01 T01590085  RH  063%=      5-min Rain = 0
KWVS 221410Z 36010KT 16/09 A30 RMK A01 T01600085  RH  063%=      5-min Rain = 0
KWVS 221415Z 00008KT 16/09 A30 RMK A01 T01620086  RH  062%=      5-min Rain = 0
KWVS 221420Z 01009KT 17/09 A30 RMK A01 T01700086  RH  059%=      5-min Rain = 0
KWVS 221425Z 01009KT 17/08 A3001 RMK A01 T01690083  RH  059%=      5-min Rain = 0
KWVS 221430Z 01010KT 17/08 A3001 RMK A01 T01660082  RH  059%=      5-min Rain = 0
KWVS 221435Z 01009KT 16/08 A3001 RMK A01 T01640081  RH  059%=      5-min Rain = 0
KWVS 221440Z 01009KT 17/08 A3002 RMK A01 T01660082  RH  059%=      5-min Rain = 0
KWVS 221445Z 01008KT 18/09 A3001 RMK A01 T01770088  RH  058%=      5-min Rain = 0
KWVS 221450Z 01010KT 18/09 A3001 RMK A01 T01790086  RH  056%=      5-min Rain = 0
KWVS 221455Z 02011KT 17/08 A3001 RMK A01 T01730083  RH  057%=      5-min Rain = 0
KWVS 221500Z 01011KT 17/09 A3001 RMK A01 T01740085  RH  058%=      5-min Rain = 0
KWVS 221505Z 02010KT 18/09 A3001 RMK A01 T01770087  RH  057%=      5-min Rain = 0
KWVS 221510Z 01011KT 18/09 A3002 RMK A01 T01770086  RH  057%=      5-min Rain = 0
KWVS 221515Z 01011KT 18/09 A3002 RMK A01 T01760086  RH  057%=      5-min Rain = 0
KWVS 221520Z 01011KT 18/09 A3002 RMK A01 T01760085  RH  057%=      5-min Rain = 0
KWVS 221525Z 02011KT 18/09 A3002 RMK A01 T01750085  RH  057%=      5-min Rain = 0
KWVS 221530Z 01010KT 17/09 A3002 RMK A01 T01740085  RH  058%=      5-min Rain = 0
KWVS 221535Z 00010KT 18/09 A3002 RMK A01 T01750087  RH  058%=      5-min Rain = 0
KWVS 221540Z 01011KT 18/09 A3002 RMK A01 T01770088  RH  057%=      5-min Rain = 0
KWVS 221545Z 02011KT 18/09 A3002 RMK A01 T01770086  RH  057%=      5-min Rain = 0
KWVS 221550Z 02011KT 18/09 A3002 RMK A01 T01780087  RH  057%=      5-min Rain = 0
KWVS 221555Z 01010KT 18/09 A3002 RMK A01 T01780088  RH  057%=      5-min Rain = 0
KWVS 221600Z 01011KT 18/09 A3002 RMK A01 T01800089  RH  057%=      5-min Rain = 0
KWVS 221605Z 02011KT 18/09 A3002 RMK A01 T01810090  RH  057%=      5-min Rain = 0
KWVS 221610Z 02011KT 18/09 A3002 RMK A01 T01800089  RH  057%=      5-min Rain = 0
KWVS 221615Z 02012KT 18/09 A3002 RMK A01 T01820089  RH  056%=      5-min Rain = 0
KWVS 221620Z 02013KT 18/09 A3002 RMK A01 T01800089  RH  057%=      5-min Rain = 0
KWVS 221625Z 02013KT 18/09 A3002 RMK A01 T01820089  RH  056%=      5-min Rain = 0
KWVS 221630Z 02013KT 19/09 A3002 RMK A01 T01850091  RH  056%=      5-min Rain = 0
KWVS 221635Z 02012KT 19/09 A3002 RMK A01 T01880092  RH  055%=      5-min Rain = 0
KWVS 221640Z 02011KT 19/10 A3002 RMK A01 T01930095  RH  054%=      5-min Rain = 0
KWVS 221645Z 03011KT 19/10 A3002 RMK A01 T01930095  RH  055%=      5-min Rain = 0
KWVS 221650Z 03012KT 19/09 A3002 RMK A01 T01910094  RH  055%=      5-min Rain = 0
KWVS 221655Z 03009KT 19/10 A3002 RMK A01 T01930095  RH  055%=      5-min Rain = 0
KWVS 221700Z 02008KT 20/10 A3003 RMK A01 T02000099  RH  054%=      5-min Rain = 0
KWVS 221705Z 03008KT 20/10 A3003 RMK A01 T01970095  RH  054%=      5-min Rain = 0
KWVS 221710Z 02009KT 20/10 A3002 RMK A01 T01970098  RH  054%=      5-min Rain = 0
KWVS 221715Z 02008KT 20/10 A3002 RMK A01 T01970096  RH  054%=      5-min Rain = 0
KWVS 221720Z 03009KT 20/10 A3002 RMK A01 T01980098  RH  054%=      5-min Rain = 0
KWVS 221725Z 03008KT 20/10 A3002 RMK A01 T01990100  RH  054%=      5-min Rain = 0
KWVS 221730Z 06008KT 20/10 A3003 RMK A01 T01980099  RH  054%=      5-min Rain = 0
KWVS 221735Z 06006KT 20/10 A3004 RMK A01 T01970099  RH  055%=      5-min Rain = 0
KWVS 221740Z 06007KT 20/10 A3003 RMK A01 T01980100  RH  055%=      5-min Rain = 0
KWVS 221745Z 07006KT 20/10 A3004 RMK A01 T01990101  RH  055%=      5-min Rain = 0
KWVS 221750Z 08005G10KT 20/10 A3004 RMK A01 T01970099  RH  055%=      5-min Rain = 0
KWVS 221755Z 06005KT 20/10 A3004 RMK A01 T01990100  RH  055%=      5-min Rain = 0
KWVS 221800Z 05006KT 20/10 A3003 RMK A01 T01970100  RH  055%=      5-min Rain = 0
KWVS 221805Z 05007KT 20/10 A3003 RMK A01 T01980102  RH  056%=      5-min Rain = 0
KWVS 221810Z 04007KT 20/10 A3003 RMK A01 T01980102  RH  055%=      5-min Rain = 0
KWVS 221815Z 05008G13KT 20/10 A3003 RMK A01 T01980102  RH  056%=      5-min Rain = 0
KWVS 221820Z 04009KT 20/10 A3003 RMK A01 T01990103  RH  056%=      5-min Rain = 0
KWVS 221825Z 05009KT 20/11 A3003 RMK A01 T02020105  RH  056%=      5-min Rain = 0
KWVS 221830Z 03006KT 20/10 A3003 RMK A01 T02020103  RH  055%=      5-min Rain = 0
KWVS 221835Z 03008KT 20/10 A3003 RMK A01 T02020104  RH  055%=      5-min Rain = 0
KWVS 221840Z 03010KT 21/11 A3002 RMK A01 T02050105  RH  054%=      5-min Rain = 0
KWVS 221845Z 04009KT 20/11 A3002 RMK A01 T02040106  RH  055%=      5-min Rain = 0
KWVS 221850Z 03009KT 20/11 A3002 RMK A01 T02040106  RH  055%=      5-min Rain = 0
KWVS 221855Z 03009KT 21/11 A3002 RMK A01 T02060107  RH  055%=      5-min Rain = 0
KWVS 221900Z 05008KT 21/11 A3002 RMK A01 T02090110  RH  055%=      5-min Rain = 0
KWVS 221905Z 07008KT 21/11 A3002 RMK A01 T02070108  RH  055%=      5-min Rain = 0
KWVS 221910Z 05008KT 20/11 A3002 RMK A01 T02040108  RH  056%=      5-min Rain = 0
KWVS 221915Z 04007G12KT 20/11 A3002 RMK A01 T02030108  RH  056%=      5-min Rain = 0
KWVS 221920Z 07008KT 20/11 A3002 RMK A01 T02030109  RH  056%=      5-min Rain = 0
KWVS 221925Z 06007KT 20/11 A3002 RMK A01 T02040108  RH  056%=      5-min Rain = 0
KWVS 221930Z 05009KT 20/11 A3002 RMK A01 T02020108  RH  056%=      5-min Rain = 0
KWVS 221935Z 04008KT 20/11 A3002 RMK A01 T02030110  RH  057%=      5-min Rain = 0
KWVS 221940Z 04009KT 20/11 A3002 RMK A01 T02010108  RH  057%=      5-min Rain = 0
KWVS 221945Z 04008KT 20/11 A3002 RMK A01 T01990106  RH  057%=      5-min Rain = 0
KWVS 221950Z 04009KT 20/11 A3002 RMK A01 T01990109  RH  058%=      5-min Rain = 0
KWVS 221955Z 04007KT 20/11 A3003 RMK A01 T02020109  RH  057%=      5-min Rain = 0
KWVS 222000Z 04007KT 20/11 A3003 RMK A01 T02040111  RH  057%=      5-min Rain = 0
KWVS 222005Z 07008KT 20/11 A3004 RMK A01 T02040110  RH  057%=      5-min Rain = 0
KWVS 222010Z 07008G13KT 20/11 A3004 RMK A01 T02010109  RH  058%=      5-min Rain = 0
KWVS 222015Z 05008KT 20/11 A3004 RMK A01 T02020111  RH  058%=      5-min Rain = 0
KWVS 222020Z 05007KT 20/11 A3003 RMK A01 T02020111  RH  058%=      5-min Rain = 0
KWVS 222025Z 05008KT 21/11 A3003 RMK A01 T02050112  RH  057%=      5-min Rain = 0
KWVS 222030Z 04009KT 20/11 A3003 RMK A01 T02030112  RH  058%=      5-min Rain = 0
KWVS 222035Z 03010KT 21/11 A3002 RMK A01 T02070114  RH  057%=      5-min Rain = 0
KWVS 222040Z 02008KT 20/11 A3003 RMK A01 T02020110  RH  057%=      5-min Rain = 0
KWVS 222045Z 04010KT 20/11 A3003 RMK A01 T02000111  RH  059%=      5-min Rain = 0
KWVS 222050Z 03009KT 20/11 A3003 RMK A01 T01980111  RH  059%=      5-min Rain = 0
KWVS 222055Z 03010G16KT 20/11 A3003 RMK A01 T01990111  RH  059%=      5-min Rain = 0
KWVS 222100Z 02014G19KT 20/11 A3001 RMK A01 T02030112  RH  058%=      5-min Rain = 0
KWVS 222105Z 01016G21KT 20/11 A30 RMK A01 T02040111  RH  057%=      5-min Rain = 0
KWVS 222110Z 02017G22KT 20/11 A2999 RMK A01 T02030111  RH  057%=      5-min Rain = 0
KWVS 222115Z 02017G23KT 20/11 A2999 RMK A01 T02000109  RH  058%=      5-min Rain = 0
KWVS 222120Z 02013G19KT 20/11 A3001 RMK A01 T02000109  RH  058%=      5-min Rain = 0
KWVS 222125Z 03015KT 20/11 A3001 RMK A01 T01970108  RH  058%=      5-min Rain = 0
KWVS 222130Z 03013G18KT 20/11 A3001 RMK A01 T01970109  RH  059%=      5-min Rain = 0
KWVS 222135Z 02013G18KT 20/11 A3002 RMK A01 T01960109  RH  059%=      5-min Rain = 0
KWVS 222140Z 04011KT 20/11 A3003 RMK A01 T01950109  RH  060%=      5-min Rain = 0
KWVS 222145Z 04011KT 19/11 A3003 RMK A01 T01930110  RH  061%=      5-min Rain = 0
KWVS 222150Z 03011KT 19/11 A3003 RMK A01 T01910110  RH  061%=      5-min Rain = 0
KWVS 222155Z 03014KT 19/11 A3003 RMK A01 T01900109  RH  061%=      5-min Rain = 0
KWVS 222200Z 03012KT 19/11 A3003 RMK A01 T01900110  RH  062%=      5-min Rain = 0
KWVS 222205Z 02012KT 19/11 A3003 RMK A01 T01900110  RH  062%=      5-min Rain = 0
KWVS 222210Z 02015KT 19/11 A3002 RMK A01 T01890110  RH  062%=      5-min Rain = 0
KWVS 222215Z 02012G17KT 19/11 A3001 RMK A01 T01870112  RH  064%=      5-min Rain = 0
KWVS 222220Z 02012KT 19/11 A3002 RMK A01 T01870112  RH  064%=      5-min Rain = 0
KWVS 222225Z 02014KT 19/11 A3002 RMK A01 T01860112  RH  064%=      5-min Rain = 0
KWVS 222230Z 02012KT 19/11 A3002 RMK A01 T01860110  RH  064%=      5-min Rain = 0
KWVS 222235Z 02009G14KT 19/11 A3003 RMK A01 T01860111  RH  064%=      5-min Rain = 0
KWVS 222240Z 04010KT 19/11 A3003 RMK A01 T01850112  RH  065%=      5-min Rain = 0
KWVS 222245Z 03012KT 18/11 A3003 RMK A01 T01840110  RH  064%=      5-min Rain = 0
KWVS 222250Z 03011KT 18/11 A3004 RMK A01 T01840110  RH  064%=      5-min Rain = 0
KWVS 222255Z 02011KT 18/11 A3004 RMK A01 T01840109  RH  064%=      5-min Rain = 0
KWVS 222300Z 02011KT 18/11 A3004 RMK A01 T01840109  RH  064%=      5-min Rain = 0
KWVS 222305Z 02012KT 18/11 A3004 RMK A01 T01830109  RH  064%=      5-min Rain = 0
KWVS 222310Z 03010KT 18/11 A3004 RMK A01 T01820110  RH  065%=      5-min Rain = 0
KWVS 222315Z 04009KT 18/11 A3005 RMK A01 T01790114  RH  068%=      5-min Rain = 0
KWVS 222320Z 03008G13KT 17/12 A3005 RMK A01 T01740120  RH  073%=      5-min Rain = 0
KWVS 222325Z 02015KT 17/12 A3002 RMK A01 T01680123  RH  078%=      5-min Rain = 0.03
KWVS 222330Z 01018KT 16/13 A2999 RMK A01 T01610126  RH  083%=      5-min Rain = 0.02
KWVS 222335Z 01014KT 16/13 A2999 RMK A01 T01600128  RH  085%=      5-min Rain = 0
KWVS 222340Z 02013KT 16/13 A2999 RMK A01 T01600131  RH  086%=      5-min Rain = 0
KWVS 222345Z 02013KT 16/13 A30 RMK A01 T01610130  RH  085%=      5-min Rain = 0
KWVS 222350Z 01011KT 16/13 A30 RMK A01 T01610130  RH  085%=      5-min Rain = 0
KWVS 222355Z 02010KT 16/13 A3001 RMK A01 T01610131  RH  086%=      5-min Rain = 0
KWVS 230000Z 02007KT 16/13 A3002 RMK A01 T01610132  RH  086%=      5-min Rain = 0
KWVS 230005Z 02007KT 16/13 A3002 RMK A01 T01610132  RH  086%=      5-min Rain = 0
KWVS 230010Z 03008KT 16/13 A3002 RMK A01 T01610132  RH  086%=      5-min Rain = 0
KWVS 230015Z 03009KT 16/13 A3002 RMK A01 T01610132  RH  086%=      5-min Rain = 0
KWVS 230020Z 02009KT 16/13 A3002 RMK A01 T01610133  RH  087%=      5-min Rain = 0
KWVS 230025Z 02011KT 16/13 A3001 RMK A01 T01610133  RH  087%=      5-min Rain = 0
KWVS 230030Z 02010KT 16/13 A3001 RMK A01 T01600133  RH  087%=      5-min Rain = 0
KWVS 230035Z 01010KT 16/13 A3001 RMK A01 T01600133  RH  088%=      5-min Rain = 0
KWVS 230040Z 02010KT 16/13 A3001 RMK A01 T01600132  RH  087%=      5-min Rain = 0
KWVS 230045Z 02009KT 16/13 A3002 RMK A01 T01610132  RH  087%=      5-min Rain = 0
KWVS 230050Z 02008KT 16/13 A3002 RMK A01 T01610133  RH  087%=      5-min Rain = 0
KWVS 230055Z 02009KT 16/13 A3002 RMK A01 T01610133  RH  087%=      5-min Rain = 0
KWVS 230100Z 02010KT 16/13 A3002 RMK A01 T01610131  RH  086%=      5-min Rain = 0
KWVS 230105Z 03010KT 16/13 A3002 RMK A01 T01610131  RH  086%=      5-min Rain = 0
KWVS 230110Z 03010KT 16/13 A3002 RMK A01 T01600131  RH  086%=      5-min Rain = 0
KWVS 230115Z 03011KT 16/13 A3001 RMK A01 T01600131  RH  086%=      5-min Rain = 0.02
KWVS 230120Z 03012KT 16/13 A30 RMK A01 T01580132  RH  088%=      5-min Rain = 0
KWVS 230125Z 03013G18KT 16/13 A2999 RMK A01 T01560132  RH  089%=      5-min Rain = 0
KWVS 230130Z 02015KT 16/13 A2998 RMK A01 T01550131  RH  089%=      5-min Rain = 0.01
KWVS 230135Z 01015KT 15/13 A2998 RMK A01 T01540131  RH  090%=      5-min Rain = 0
KWVS 230140Z 02015KT 15/13 A2998 RMK A01 T01540131  RH  090%=      5-min Rain = 0
KWVS 230145Z 02015G20KT 15/13 A2998 RMK A01 T01540130  RH  089%=      5-min Rain = 0
KWVS 230150Z 02014KT 15/13 A2999 RMK A01 T01540130  RH  089%=      5-min Rain = 0
KWVS 230155Z 01011KT 16/13 A3001 RMK A01 T01550131  RH  089%=      5-min Rain = 0
KWVS 230200Z 00009KT 16/13 A3002 RMK A01 T01560131  RH  089%=      5-min Rain = 0
KWVS 230205Z 00011KT 16/13 A3002 RMK A01 T01550131  RH  089%=      5-min Rain = 0
KWVS 230210Z 36011KT 16/13 A3002 RMK A01 T01550131  RH  089%=      5-min Rain = 0
KWVS 230215Z 36011KT 16/13 A3002 RMK A01 T01550131  RH  089%=      5-min Rain = 0
KWVS 230220Z 35012KT 16/13 A3002 RMK A01 T01550131  RH  089%=      5-min Rain = 0
KWVS 230225Z 00011KT 15/13 A3002 RMK A01 T01540132  RH  090%=      5-min Rain = 0
KWVS 230230Z 00010KT 15/13 A3002 RMK A01 T01540132  RH  090%=      5-min Rain = 0
KWVS 230235Z 35010KT 15/13 A3002 RMK A01 T01530132  RH  091%=      5-min Rain = 0.01
KWVS 230240Z 35011KT 15/13 A3002 RMK A01 T01520132  RH  091%=      5-min Rain = 0.02
KWVS 230245Z 36011KT 15/13 A3002 RMK A01 T01510132  RH  092%=      5-min Rain = 0.06
KWVS 230250Z 00012KT 15/13 A3003 RMK A01 T01500132  RH  093%=      5-min Rain = 0.03
KWVS 230255Z 36013KT 15/13 A3002 RMK A01 T01500132  RH  093%=      5-min Rain = 0.01
KWVS 230300Z 01012KT 15/13 A3003 RMK A01 T01490133  RH  094%=      5-min Rain = 0.01
KWVS 230305Z 01010KT 15/13 A3003 RMK A01 T01480133  RH  094%=      5-min Rain = 0.06
KWVS 230310Z 35010KT 15/13 A3004 RMK A01 T01480133  RH  095%=      5-min Rain = 0.09
KWVS 230315Z 35008KT 15/13 A3004 RMK A01 T01470133  RH  095%=      5-min Rain = 0.01
KWVS 230320Z 35006KT 15/13 A3004 RMK A01 T01480134  RH  095%=      5-min Rain = 0.01
KWVS 230325Z 35013G19KT 15/13 A3004 RMK A01 T01480133  RH  094%=      5-min Rain = 0.01
KWVS 230330Z 35015KT 15/13 A3004 RMK A01 T01480132  RH  094%=      5-min Rain = 0.01
KWVS 230335Z 36014KT 15/13 A3003 RMK A01 T01470133  RH  095%=      5-min Rain = 0
KWVS 230340Z 35012KT 15/13 A3003 RMK A01 T01470132  RH  095%=      5-min Rain = 0
KWVS 230345Z 35015KT 15/13 A3003 RMK A01 T01470132  RH  094%=      5-min Rain = 0
KWVS 230350Z 36013G18KT 15/13 A3003 RMK A01 T01480131  RH  093%=      5-min Rain = 0.02
KWVS 230355Z 00014KT 15/13 A3003 RMK A01 T01470132  RH  094%=      5-min Rain = 0.01
KWVS 230400Z 01015KT 15/13 A3002 RMK A01 T01480132  RH  094%=      5-min Rain = 0
KWVS 230405Z 01014KT 15/13 A3002 RMK A01 T01480131  RH  094%=      5-min Rain = 0
KWVS 230410Z 01014G20KT 15/13 A3001 RMK A01 T01470132  RH  094%=      5-min Rain = 0
KWVS 230415Z 01014KT 15/13 A3002 RMK A01 T01470132  RH  094%=      5-min Rain = 0
KWVS 230420Z 01014KT 15/13 A3001 RMK A01 T01470132  RH  094%=      5-min Rain = 0.01
KWVS 230425Z 01013KT 15/13 A3001 RMK A01 T01470132  RH  094%=      5-min Rain = 0
KWVS 230430Z 02014KT 15/13 A3001 RMK A01 T01470132  RH  094%=      5-min Rain = 0
KWVS 230435Z 01014KT 15/13 A3001 RMK A01 T01470132  RH  094%=      5-min Rain = 0.01
KWVS 230440Z 00013KT 15/13 A3001 RMK A01 T01460131  RH  094%=      5-min Rain = 0
KWVS 230445Z 36014KT 15/13 A3001 RMK A01 T01460131  RH  094%=      5-min Rain = 0
KWVS 230450Z 35013KT 15/13 A3001 RMK A01 T01460130  RH  094%=      5-min Rain = 0.01
KWVS 230455Z 35013KT 15/13 A3001 RMK A01 T01450130  RH  094%=      5-min Rain = 0

Page generated in 0.0094 seconds.